sensor_id;sensor_type;location;lat;lon;timestamp;P1;durP1;ratioP1;P2;durP2;ratioP2
17794;SDS011;9021;50.882;4.326;2022-08-05T00:04:25;4.88;;;3.53;;
17794;SDS011;9021;50.882;4.326;2022-08-05T00:06:51;9.35;;;3.83;;
17794;SDS011;9021;50.882;4.326;2022-08-05T00:09:17;11.25;;;3.75;;
17794;SDS011;9021;50.882;4.326;2022-08-05T00:11:42;9.93;;;3.40;;
17794;SDS011;9021;50.882;4.326;2022-08-05T00:16:36;4.63;;;3.55;;
17794;SDS011;9021;50.882;4.326;2022-08-05T00:19:08;5.88;;;3.30;;
17794;SDS011;9021;50.882;4.326;2022-08-05T00:21:36;8.52;;;3.20;;
17794;SDS011;9021;50.882;4.326;2022-08-05T00:24:02;6.95;;;3.22;;
17794;SDS011;9021;50.882;4.326;2022-08-05T00:26:28;8.07;;;3.50;;
17794;SDS011;9021;50.882;4.326;2022-08-05T00:28:54;9.52;;;3.00;;
17794;SDS011;9021;50.882;4.326;2022-08-05T00:31:19;7.70;;;3.13;;
17794;SDS011;9021;50.882;4.326;2022-08-05T00:33:45;5.40;;;3.00;;
17794;SDS011;9021;50.882;4.326;2022-08-05T00:36:11;5.97;;;3.40;;
17794;SDS011;9021;50.882;4.326;2022-08-05T00:38:37;7.47;;;3.47;;
17794;SDS011;9021;50.882;4.326;2022-08-05T00:41:03;6.38;;;3.28;;
17794;SDS011;9021;50.882;4.326;2022-08-05T00:43:33;8.50;;;3.67;;
17794;SDS011;9021;50.882;4.326;2022-08-05T00:46:00;7.75;;;3.90;;
17794;SDS011;9021;50.882;4.326;2022-08-05T00:48:26;10.55;;;3.67;;
17794;SDS011;9021;50.882;4.326;2022-08-05T00:50:52;10.00;;;3.90;;
17794;SDS011;9021;50.882;4.326;2022-08-05T00:53:21;8.93;;;4.20;;
17794;SDS011;9021;50.882;4.326;2022-08-05T00:55:50;6.20;;;4.15;;
17794;SDS011;9021;50.882;4.326;2022-08-05T00:58:31;4.97;;;3.83;;
17794;SDS011;9021;50.882;4.326;2022-08-05T01:01:17;7.88;;;4.05;;
17794;SDS011;9021;50.882;4.326;2022-08-05T01:03:43;6.82;;;4.00;;
17794;SDS011;9021;50.882;4.326;2022-08-05T01:09:14;11.60;;;3.53;;
17794;SDS011;9021;50.882;4.326;2022-08-05T01:12:08;10.43;;;3.35;;
17794;SDS011;9021;50.882;4.326;2022-08-05T01:14:54;8.38;;;3.47;;
17794;SDS011;9021;50.882;4.326;2022-08-05T01:17:46;7.13;;;3.60;;
17794;SDS011;9021;50.882;4.326;2022-08-05T01:31:27;6.85;;;3.40;;
17794;SDS011;9021;50.882;4.326;2022-08-05T01:39:27;8.65;;;3.58;;
17794;SDS011;9021;50.882;4.326;2022-08-05T01:41:55;6.80;;;3.40;;
17794;SDS011;9021;50.882;4.326;2022-08-05T01:44:23;8.55;;;3.75;;
17794;SDS011;9021;50.882;4.326;2022-08-05T01:46:49;8.95;;;3.85;;
17794;SDS011;9021;50.882;4.326;2022-08-05T01:49:19;10.35;;;4.07;;
17794;SDS011;9021;50.882;4.326;2022-08-05T01:51:46;6.00;;;4.07;;
17794;SDS011;9021;50.882;4.326;2022-08-05T01:54:14;6.93;;;4.05;;
17794;SDS011;9021;50.882;4.326;2022-08-05T01:56:41;6.95;;;3.70;;
17794;SDS011;9021;50.882;4.326;2022-08-05T01:59:16;9.40;;;3.90;;
17794;SDS011;9021;50.882;4.326;2022-08-05T02:01:44;6.28;;;3.50;;
17794;SDS011;9021;50.882;4.326;2022-08-05T02:04:13;7.70;;;3.50;;
17794;SDS011;9021;50.882;4.326;2022-08-05T02:06:42;9.25;;;3.83;;
17794;SDS011;9021;50.882;4.326;2022-08-05T02:09:08;6.82;;;3.40;;
17794;SDS011;9021;50.882;4.326;2022-08-05T02:11:42;9.23;;;3.40;;
17794;SDS011;9021;50.882;4.326;2022-08-05T02:14:14;10.68;;;3.78;;
17794;SDS011;9021;50.882;4.326;2022-08-05T02:16:50;6.82;;;3.42;;
17794;SDS011;9021;50.882;4.326;2022-08-05T02:19:27;6.57;;;3.33;;
17794;SDS011;9021;50.882;4.326;2022-08-05T02:24:39;10.40;;;3.70;;
17794;SDS011;9021;50.882;4.326;2022-08-05T02:27:09;10.02;;;3.30;;
17794;SDS011;9021;50.882;4.326;2022-08-05T02:29:36;6.43;;;3.20;;
17794;SDS011;9021;50.882;4.326;2022-08-05T02:32:07;7.90;;;2.97;;
17794;SDS011;9021;50.882;4.326;2022-08-05T02:34:35;4.93;;;2.60;;
17794;SDS011;9021;50.882;4.326;2022-08-05T02:37:02;7.85;;;3.22;;
17794;SDS011;9021;50.882;4.326;2022-08-05T02:39:30;5.22;;;3.40;;
17794;SDS011;9021;50.882;4.326;2022-08-05T02:42:00;6.60;;;3.42;;
17794;SDS011;9021;50.882;4.326;2022-08-05T02:44:28;12.40;;;3.97;;
17794;SDS011;9021;50.882;4.326;2022-08-05T02:46:56;11.10;;;4.05;;
17794;SDS011;9021;50.882;4.326;2022-08-05T02:49:23;8.52;;;3.85;;
17794;SDS011;9021;50.882;4.326;2022-08-05T02:51:51;10.80;;;3.70;;
17794;SDS011;9021;50.882;4.326;2022-08-05T02:54:17;7.10;;;3.40;;
17794;SDS011;9021;50.882;4.326;2022-08-05T02:56:45;6.35;;;3.65;;
17794;SDS011;9021;50.882;4.326;2022-08-05T02:59:12;12.60;;;3.97;;
17794;SDS011;9021;50.882;4.326;2022-08-05T03:01:39;9.30;;;3.60;;
17794;SDS011;9021;50.882;4.326;2022-08-05T03:04:07;11.18;;;3.72;;
17794;SDS011;9021;50.882;4.326;2022-08-05T03:06:36;10.30;;;3.78;;
17794;SDS011;9021;50.882;4.326;2022-08-05T03:09:03;10.50;;;3.97;;
17794;SDS011;9021;50.882;4.326;2022-08-05T03:11:29;10.18;;;3.35;;
17794;SDS011;9021;50.882;4.326;2022-08-05T03:13:55;11.25;;;4.30;;
17794;SDS011;9021;50.882;4.326;2022-08-05T03:16:21;10.45;;;3.80;;
17794;SDS011;9021;50.882;4.326;2022-08-05T03:18:47;9.32;;;3.80;;
17794;SDS011;9021;50.882;4.326;2022-08-05T03:21:12;9.68;;;3.63;;
17794;SDS011;9021;50.882;4.326;2022-08-05T03:23:39;7.82;;;3.40;;
17794;SDS011;9021;50.882;4.326;2022-08-05T03:26:07;11.20;;;3.67;;
17794;SDS011;9021;50.882;4.326;2022-08-05T03:28:33;9.88;;;3.75;;
17794;SDS011;9021;50.882;4.326;2022-08-05T03:30:59;7.13;;;3.60;;
17794;SDS011;9021;50.882;4.326;2022-08-05T03:33:26;12.00;;;3.75;;
17794;SDS011;9021;50.882;4.326;2022-08-05T03:35:53;6.25;;;3.30;;
17794;SDS011;9021;50.882;4.326;2022-08-05T03:38:20;10.00;;;3.33;;
17794;SDS011;9021;50.882;4.326;2022-08-05T03:40:46;10.98;;;3.85;;
17794;SDS011;9021;50.882;4.326;2022-08-05T03:43:12;9.85;;;3.40;;
17794;SDS011;9021;50.882;4.326;2022-08-05T03:45:38;9.02;;;3.75;;
17794;SDS011;9021;50.882;4.326;2022-08-05T03:48:04;7.88;;;3.70;;
17794;SDS011;9021;50.882;4.326;2022-08-05T03:51:14;9.57;;;4.25;;
17794;SDS011;9021;50.882;4.326;2022-08-05T03:54:07;9.38;;;3.53;;
17794;SDS011;9021;50.882;4.326;2022-08-05T03:56:27;7.32;;;4.10;;
17794;SDS011;9021;50.882;4.326;2022-08-05T03:58:59;8.70;;;4.13;;
17794;SDS011;9021;50.882;4.326;2022-08-05T04:01:27;11.32;;;4.22;;
17794;SDS011;9021;50.882;4.326;2022-08-05T04:03:55;11.82;;;4.25;;
17794;SDS011;9021;50.882;4.326;2022-08-05T04:06:23;8.18;;;4.10;;
17794;SDS011;9021;50.882;4.326;2022-08-05T04:08:49;13.02;;;4.65;;
17794;SDS011;9021;50.882;4.326;2022-08-05T04:11:16;13.80;;;4.70;;
17794;SDS011;9021;50.882;4.326;2022-08-05T04:13:42;11.10;;;4.40;;
17794;SDS011;9021;50.882;4.326;2022-08-05T04:16:09;9.15;;;4.55;;
17794;SDS011;9021;50.882;4.326;2022-08-05T04:18:37;9.00;;;4.15;;
17794;SDS011;9021;50.882;4.326;2022-08-05T04:21:03;9.10;;;4.03;;
17794;SDS011;9021;50.882;4.326;2022-08-05T04:23:30;7.57;;;4.60;;
17794;SDS011;9021;50.882;4.326;2022-08-05T04:25:58;12.02;;;4.80;;
17794;SDS011;9021;50.882;4.326;2022-08-05T04:28:23;12.15;;;4.57;;
17794;SDS011;9021;50.882;4.326;2022-08-05T04:30:49;13.80;;;5.07;;
17794;SDS011;9021;50.882;4.326;2022-08-05T04:33:15;10.43;;;4.65;;
17794;SDS011;9021;50.882;4.326;2022-08-05T04:35:40;8.63;;;4.47;;
17794;SDS011;9021;50.882;4.326;2022-08-05T04:38:07;9.73;;;4.85;;
17794;SDS011;9021;50.882;4.326;2022-08-05T04:40:34;11.32;;;4.93;;
17794;SDS011;9021;50.882;4.326;2022-08-05T04:43:01;14.35;;;4.82;;
17794;SDS011;9021;50.882;4.326;2022-08-05T04:45:27;10.48;;;4.68;;
17794;SDS011;9021;50.882;4.326;2022-08-05T04:47:53;12.27;;;5.20;;
17794;SDS011;9021;50.882;4.326;2022-08-05T04:50:27;12.00;;;5.65;;
17794;SDS011;9021;50.882;4.326;2022-08-05T04:52:52;9.68;;;5.10;;
17794;SDS011;9021;50.882;4.326;2022-08-05T04:55:18;15.23;;;5.03;;
17794;SDS011;9021;50.882;4.326;2022-08-05T04:57:44;12.93;;;5.57;;
17794;SDS011;9021;50.882;4.326;2022-08-05T05:00:10;11.77;;;4.57;;
17794;SDS011;9021;50.882;4.326;2022-08-05T05:02:37;11.30;;;4.88;;
17794;SDS011;9021;50.882;4.326;2022-08-05T05:05:02;11.55;;;4.97;;
17794;SDS011;9021;50.882;4.326;2022-08-05T05:07:29;12.25;;;4.90;;
17794;SDS011;9021;50.882;4.326;2022-08-05T05:09:55;13.00;;;5.10;;
17794;SDS011;9021;50.882;4.326;2022-08-05T05:12:21;9.90;;;4.75;;
17794;SDS011;9021;50.882;4.326;2022-08-05T05:14:46;12.55;;;4.65;;
17794;SDS011;9021;50.882;4.326;2022-08-05T05:17:12;16.25;;;6.28;;
17794;SDS011;9021;50.882;4.326;2022-08-05T05:19:38;14.20;;;4.75;;
17794;SDS011;9021;50.882;4.326;2022-08-05T05:22:05;10.82;;;4.55;;
17794;SDS011;9021;50.882;4.326;2022-08-05T05:24:31;11.73;;;5.70;;
17794;SDS011;9021;50.882;4.326;2022-08-05T05:26:56;9.25;;;4.85;;
17794;SDS011;9021;50.882;4.326;2022-08-05T05:29:22;12.18;;;4.90;;
17794;SDS011;9021;50.882;4.326;2022-08-05T05:31:48;10.73;;;4.97;;
17794;SDS011;9021;50.882;4.326;2022-08-05T05:34:13;10.15;;;5.43;;
17794;SDS011;9021;50.882;4.326;2022-08-05T05:36:39;11.25;;;4.95;;
17794;SDS011;9021;50.882;4.326;2022-08-05T05:39:05;10.80;;;4.95;;
17794;SDS011;9021;50.882;4.326;2022-08-05T05:41:30;13.63;;;4.72;;
17794;SDS011;9021;50.882;4.326;2022-08-05T05:43:59;10.15;;;4.10;;
17794;SDS011;9021;50.882;4.326;2022-08-05T05:46:25;11.40;;;4.90;;
17794;SDS011;9021;50.882;4.326;2022-08-05T05:48:50;10.40;;;4.95;;
17794;SDS011;9021;50.882;4.326;2022-08-05T05:51:19;12.40;;;4.97;;
17794;SDS011;9021;50.882;4.326;2022-08-05T05:53:46;8.77;;;4.97;;
17794;SDS011;9021;50.882;4.326;2022-08-05T05:58:37;12.45;;;4.68;;
17794;SDS011;9021;50.882;4.326;2022-08-05T06:01:03;9.35;;;4.97;;
17794;SDS011;9021;50.882;4.326;2022-08-05T06:03:29;11.55;;;4.90;;
17794;SDS011;9021;50.882;4.326;2022-08-05T06:05:54;9.52;;;5.22;;
17794;SDS011;9021;50.882;4.326;2022-08-05T06:10:45;12.82;;;4.35;;
17794;SDS011;9021;50.882;4.326;2022-08-05T06:13:11;9.95;;;4.60;;
17794;SDS011;9021;50.882;4.326;2022-08-05T06:15:37;10.25;;;4.60;;
17794;SDS011;9021;50.882;4.326;2022-08-05T06:18:03;12.10;;;4.30;;
17794;SDS011;9021;50.882;4.326;2022-08-05T06:20:28;11.27;;;5.47;;
17794;SDS011;9021;50.882;4.326;2022-08-05T06:22:54;10.57;;;4.15;;
17794;SDS011;9021;50.882;4.326;2022-08-05T06:27:45;6.30;;;3.55;;
17794;SDS011;9021;50.882;4.326;2022-08-05T06:32:40;12.43;;;3.58;;
17794;SDS011;9021;50.882;4.326;2022-08-05T06:35:06;9.73;;;4.40;;
17794;SDS011;9021;50.882;4.326;2022-08-05T06:39:58;6.45;;;3.67;;
17794;SDS011;9021;50.882;4.326;2022-08-05T06:44:49;6.68;;;3.42;;
17794;SDS011;9021;50.882;4.326;2022-08-05T06:49:40;9.65;;;2.70;;
17794;SDS011;9021;50.882;4.326;2022-08-05T06:54:31;9.02;;;3.50;;
17794;SDS011;9021;50.882;4.326;2022-08-05T06:59:22;7.47;;;3.33;;
17794;SDS011;9021;50.882;4.326;2022-08-05T07:04:14;7.65;;;3.20;;
17794;SDS011;9021;50.882;4.326;2022-08-05T07:09:05;6.60;;;3.08;;
17794;SDS011;9021;50.882;4.326;2022-08-05T07:13:57;8.50;;;3.60;;
17794;SDS011;9021;50.882;4.326;2022-08-05T07:16:42;6.63;;;2.45;;
17794;SDS011;9021;50.882;4.326;2022-08-05T07:19:13;12.82;;;2.83;;
17794;SDS011;9021;50.882;4.326;2022-08-05T07:21:41;11.45;;;3.00;;
17794;SDS011;9021;50.882;4.326;2022-08-05T07:24:07;5.75;;;2.78;;
17794;SDS011;9021;50.882;4.326;2022-08-05T07:26:33;6.97;;;2.25;;
17794;SDS011;9021;50.882;4.326;2022-08-05T07:28:58;6.45;;;2.35;;
17794;SDS011;9021;50.882;4.326;2022-08-05T07:31:24;10.07;;;2.50;;
17794;SDS011;9021;50.882;4.326;2022-08-05T07:33:49;9.15;;;2.50;;
17794;SDS011;9021;50.882;4.326;2022-08-05T07:36:15;6.85;;;2.72;;
17794;SDS011;9021;50.882;4.326;2022-08-05T07:38:41;8.38;;;2.63;;
17794;SDS011;9021;50.882;4.326;2022-08-05T07:41:08;7.45;;;2.60;;
17794;SDS011;9021;50.882;4.326;2022-08-05T07:43:35;7.75;;;2.22;;
17794;SDS011;9021;50.882;4.326;2022-08-05T07:46:01;5.07;;;1.92;;
17794;SDS011;9021;50.882;4.326;2022-08-05T07:48:26;10.45;;;2.05;;
17794;SDS011;9021;50.882;4.326;2022-08-05T07:50:52;9.32;;;2.20;;
17794;SDS011;9021;50.882;4.326;2022-08-05T07:53:17;4.72;;;1.88;;
17794;SDS011;9021;50.882;4.326;2022-08-05T07:55:43;7.22;;;1.90;;
17794;SDS011;9021;50.882;4.326;2022-08-05T07:58:09;6.18;;;1.73;;
17794;SDS011;9021;50.882;4.326;2022-08-05T08:00:34;7.78;;;1.60;;
17794;SDS011;9021;50.882;4.326;2022-08-05T08:03:00;8.90;;;1.67;;
17794;SDS011;9021;50.882;4.326;2022-08-05T08:05:26;4.60;;;1.50;;
17794;SDS011;9021;50.882;4.326;2022-08-05T08:07:52;7.57;;;1.55;;
17794;SDS011;9021;50.882;4.326;2022-08-05T08:10:19;4.75;;;1.45;;
17794;SDS011;9021;50.882;4.326;2022-08-05T08:12:46;3.92;;;1.30;;
17794;SDS011;9021;50.882;4.326;2022-08-05T08:15:12;6.30;;;1.48;;
17794;SDS011;9021;50.882;4.326;2022-08-05T08:17:38;4.63;;;1.73;;
17794;SDS011;9021;50.882;4.326;2022-08-05T08:20:03;4.18;;;1.30;;
17794;SDS011;9021;50.882;4.326;2022-08-05T08:22:30;5.78;;;1.70;;
17794;SDS011;9021;50.882;4.326;2022-08-05T08:24:56;7.43;;;1.60;;
17794;SDS011;9021;50.882;4.326;2022-08-05T08:27:21;4.65;;;1.55;;
17794;SDS011;9021;50.882;4.326;2022-08-05T08:29:47;7.22;;;1.40;;
17794;SDS011;9021;50.882;4.326;2022-08-05T08:32:13;5.22;;;1.27;;
17794;SDS011;9021;50.882;4.326;2022-08-05T08:34:38;3.78;;;1.10;;
17794;SDS011;9021;50.882;4.326;2022-08-05T08:37:04;7.38;;;2.03;;
17794;SDS011;9021;50.882;4.326;2022-08-05T08:39:30;5.38;;;1.33;;
17794;SDS011;9021;50.882;4.326;2022-08-05T08:41:55;4.43;;;1.40;;
17794;SDS011;9021;50.882;4.326;2022-08-05T08:44:24;4.40;;;1.38;;
17794;SDS011;9021;50.882;4.326;2022-08-05T08:46:54;3.35;;;1.20;;
17794;SDS011;9021;50.882;4.326;2022-08-05T08:49:20;5.03;;;1.30;;
17794;SDS011;9021;50.882;4.326;2022-08-05T08:51:58;4.65;;;1.23;;
17794;SDS011;9021;50.882;4.326;2022-08-05T08:54:29;3.67;;;1.30;;
17794;SDS011;9021;50.882;4.326;2022-08-05T08:56:56;5.25;;;1.10;;
17794;SDS011;9021;50.882;4.326;2022-08-05T08:59:22;5.28;;;1.13;;
17794;SDS011;9021;50.882;4.326;2022-08-05T09:01:48;2.22;;;0.90;;
17794;SDS011;9021;50.882;4.326;2022-08-05T09:04:15;3.25;;;1.23;;
17794;SDS011;9021;50.882;4.326;2022-08-05T09:06:41;4.13;;;1.70;;
17794;SDS011;9021;50.882;4.326;2022-08-05T09:09:07;6.57;;;2.00;;
17794;SDS011;9021;50.882;4.326;2022-08-05T09:11:33;3.63;;;1.83;;
17794;SDS011;9021;50.882;4.326;2022-08-05T09:13:59;6.07;;;2.05;;
17794;SDS011;9021;50.882;4.326;2022-08-05T09:16:25;8.63;;;2.17;;
17794;SDS011;9021;50.882;4.326;2022-08-05T09:18:51;5.45;;;1.90;;
17794;SDS011;9021;50.882;4.326;2022-08-05T09:21:17;5.05;;;2.10;;
17794;SDS011;9021;50.882;4.326;2022-08-05T09:23:46;7.47;;;2.00;;
17794;SDS011;9021;50.882;4.326;2022-08-05T09:26:25;6.47;;;1.75;;
17794;SDS011;9021;50.882;4.326;2022-08-05T09:28:51;7.18;;;1.80;;
17794;SDS011;9021;50.882;4.326;2022-08-05T09:31:22;3.45;;;1.83;;
17794;SDS011;9021;50.882;4.326;2022-08-05T09:33:56;4.57;;;1.23;;
17794;SDS011;9021;50.882;4.326;2022-08-05T09:36:23;4.47;;;1.48;;
17794;SDS011;9021;50.882;4.326;2022-08-05T09:39:03;3.85;;;1.20;;
17794;SDS011;9021;50.882;4.326;2022-08-05T09:41:31;3.22;;;1.10;;
17794;SDS011;9021;50.882;4.326;2022-08-05T09:43:56;8.30;;;1.88;;
17794;SDS011;9021;50.882;4.326;2022-08-05T09:46:26;3.33;;;1.30;;
17794;SDS011;9021;50.882;4.326;2022-08-05T09:48:58;5.32;;;0.93;;
17794;SDS011;9021;50.882;4.326;2022-08-05T09:51:29;3.63;;;1.00;;
17794;SDS011;9021;50.882;4.326;2022-08-05T09:54:00;1.95;;;0.95;;
17794;SDS011;9021;50.882;4.326;2022-08-05T09:59:09;3.22;;;0.77;;
17794;SDS011;9021;50.882;4.326;2022-08-05T10:01:38;3.30;;;0.60;;
17794;SDS011;9021;50.882;4.326;2022-08-05T10:04:10;1.95;;;0.60;;
17794;SDS011;9021;50.882;4.326;2022-08-05T10:06:39;4.95;;;0.75;;
17794;SDS011;9021;50.882;4.326;2022-08-05T10:09:12;2.90;;;0.70;;
17794;SDS011;9021;50.882;4.326;2022-08-05T10:11:41;3.70;;;0.68;;
17794;SDS011;9021;50.882;4.326;2022-08-05T10:17:17;3.00;;;0.65;;
17794;SDS011;9021;50.882;4.326;2022-08-05T10:19:46;2.50;;;0.65;;
17794;SDS011;9021;50.882;4.326;2022-08-05T10:22:11;3.90;;;0.75;;
17794;SDS011;9021;50.882;4.326;2022-08-05T10:24:37;4.90;;;0.60;;
17794;SDS011;9021;50.882;4.326;2022-08-05T10:27:03;4.60;;;0.60;;
17794;SDS011;9021;50.882;4.326;2022-08-05T10:29:29;2.10;;;0.60;;
17794;SDS011;9021;50.882;4.326;2022-08-05T10:32:00;2.92;;;0.70;;
17794;SDS011;9021;50.882;4.326;2022-08-05T10:34:26;3.75;;;0.82;;
17794;SDS011;9021;50.882;4.326;2022-08-05T10:36:52;2.75;;;0.60;;
17794;SDS011;9021;50.882;4.326;2022-08-05T10:39:19;1.48;;;0.63;;
17794;SDS011;9021;50.882;4.326;2022-08-05T10:41:59;5.78;;;1.00;;
17794;SDS011;9021;50.882;4.326;2022-08-05T10:44:31;2.05;;;0.63;;
17794;SDS011;9021;50.882;4.326;2022-08-05T10:46:58;2.72;;;0.60;;
17794;SDS011;9021;50.882;4.326;2022-08-05T10:52:38;4.18;;;0.60;;
17794;SDS011;9021;50.882;4.326;2022-08-05T10:55:10;1.60;;;0.60;;
17794;SDS011;9021;50.882;4.326;2022-08-05T10:57:38;3.92;;;0.55;;
17794;SDS011;9021;50.882;4.326;2022-08-05T11:00:10;3.28;;;0.70;;
17794;SDS011;9021;50.882;4.326;2022-08-05T11:05:23;1.10;;;0.40;;
17794;SDS011;9021;50.882;4.326;2022-08-05T11:07:57;2.35;;;0.60;;
17794;SDS011;9021;50.882;4.326;2022-08-05T11:10:25;2.60;;;0.50;;
17794;SDS011;9021;50.882;4.326;2022-08-05T11:12:51;2.97;;;0.65;;
17794;SDS011;9021;50.882;4.326;2022-08-05T11:17:45;1.85;;;0.40;;
17794;SDS011;9021;50.882;4.326;2022-08-05T11:22:58;2.47;;;0.60;;
17794;SDS011;9021;50.882;4.326;2022-08-05T11:33:36;2.33;;;0.50;;
17794;SDS011;9021;50.882;4.326;2022-08-05T11:36:08;2.63;;;0.60;;
17794;SDS011;9021;50.882;4.326;2022-08-05T11:41:03;1.58;;;0.60;;
17794;SDS011;9021;50.882;4.326;2022-08-05T11:43:30;5.72;;;0.63;;
17794;SDS011;9021;50.882;4.326;2022-08-05T11:46:05;1.23;;;0.40;;
17794;SDS011;9021;50.882;4.326;2022-08-05T11:48:31;2.42;;;0.50;;
17794;SDS011;9021;50.882;4.326;2022-08-05T11:50:58;8.55;;;0.60;;
17794;SDS011;9021;50.882;4.326;2022-08-05T11:53:23;4.68;;;0.82;;
17794;SDS011;9021;50.882;4.326;2022-08-05T11:55:53;1.90;;;0.50;;
17794;SDS011;9021;50.882;4.326;2022-08-05T12:01:20;2.55;;;0.47;;
17794;SDS011;9021;50.882;4.326;2022-08-05T12:03:51;1.90;;;0.50;;
17794;SDS011;9021;50.882;4.326;2022-08-05T12:06:25;8.10;;;0.98;;
17794;SDS011;9021;50.882;4.326;2022-08-05T12:08:56;2.60;;;0.55;;
17794;SDS011;9021;50.882;4.326;2022-08-05T12:11:24;2.42;;;0.82;;
17794;SDS011;9021;50.882;4.326;2022-08-05T12:13:55;4.65;;;0.50;;
17794;SDS011;9021;50.882;4.326;2022-08-05T12:16:31;2.58;;;0.68;;
17794;SDS011;9021;50.882;4.326;2022-08-05T12:18:58;3.08;;;0.50;;
17794;SDS011;9021;50.882;4.326;2022-08-05T12:26:40;2.85;;;0.40;;
17794;SDS011;9021;50.882;4.326;2022-08-05T12:29:15;2.30;;;0.70;;
17794;SDS011;9021;50.882;4.326;2022-08-05T12:31:44;3.28;;;0.70;;
17794;SDS011;9021;50.882;4.326;2022-08-05T12:34:16;3.53;;;0.52;;
17794;SDS011;9021;50.882;4.326;2022-08-05T12:36:43;2.05;;;0.60;;
17794;SDS011;9021;50.882;4.326;2022-08-05T12:39:10;2.28;;;0.47;;
17794;SDS011;9021;50.882;4.326;2022-08-05T12:41:37;4.47;;;0.70;;
17794;SDS011;9021;50.882;4.326;2022-08-05T12:44:11;1.33;;;0.50;;
17794;SDS011;9021;50.882;4.326;2022-08-05T12:46:39;4.85;;;0.50;;
17794;SDS011;9021;50.882;4.326;2022-08-05T12:52:10;2.28;;;0.65;;
17794;SDS011;9021;50.882;4.326;2022-08-05T12:54:28;3.88;;;0.57;;
17794;SDS011;9021;50.882;4.326;2022-08-05T12:56:58;1.42;;;0.47;;
17794;SDS011;9021;50.882;4.326;2022-08-05T12:59:29;3.40;;;0.43;;
17794;SDS011;9021;50.882;4.326;2022-08-05T13:02:08;2.00;;;0.40;;
17794;SDS011;9021;50.882;4.326;2022-08-05T13:04:39;1.77;;;0.40;;
17794;SDS011;9021;50.882;4.326;2022-08-05T13:07:10;1.48;;;0.50;;
17794;SDS011;9021;50.882;4.326;2022-08-05T13:09:48;7.18;;;0.52;;
17794;SDS011;9021;50.882;4.326;2022-08-05T13:12:18;2.67;;;0.40;;
17794;SDS011;9021;50.882;4.326;2022-08-05T13:14:51;1.33;;;0.55;;
17794;SDS011;9021;50.882;4.326;2022-08-05T13:22:25;0.85;;;0.40;;
17794;SDS011;9021;50.882;4.326;2022-08-05T13:24:51;1.38;;;0.40;;
17794;SDS011;9021;50.882;4.326;2022-08-05T13:27:24;1.67;;;0.30;;
17794;SDS011;9021;50.882;4.326;2022-08-05T13:29:57;1.58;;;0.40;;
17794;SDS011;9021;50.882;4.326;2022-08-05T13:32:23;1.90;;;0.80;;
17794;SDS011;9021;50.882;4.326;2022-08-05T13:34:49;2.47;;;0.80;;
17794;SDS011;9021;50.882;4.326;2022-08-05T13:37:19;3.40;;;0.80;;
17794;SDS011;9021;50.882;4.326;2022-08-05T13:39:46;4.40;;;0.52;;
17794;SDS011;9021;50.882;4.326;2022-08-05T13:42:12;2.78;;;0.50;;
17794;SDS011;9021;50.882;4.326;2022-08-05T13:44:38;3.40;;;0.90;;
17794;SDS011;9021;50.882;4.326;2022-08-05T13:47:04;0.63;;;0.22;;
17794;SDS011;9021;50.882;4.326;2022-08-05T13:49:29;0.88;;;0.40;;
17794;SDS011;9021;50.882;4.326;2022-08-05T13:54:21;1.35;;;0.50;;
17794;SDS011;9021;50.882;4.326;2022-08-05T13:56:50;3.13;;;0.50;;
17794;SDS011;9021;50.882;4.326;2022-08-05T13:59:16;1.95;;;0.30;;
17794;SDS011;9021;50.882;4.326;2022-08-05T14:01:43;3.17;;;1.02;;
17794;SDS011;9021;50.882;4.326;2022-08-05T14:04:08;0.98;;;0.30;;
17794;SDS011;9021;50.882;4.326;2022-08-05T14:06:52;1.63;;;0.40;;
17794;SDS011;9021;50.882;4.326;2022-08-05T14:09:18;3.95;;;0.60;;
17794;SDS011;9021;50.882;4.326;2022-08-05T14:11:44;0.93;;;0.30;;
17794;SDS011;9021;50.882;4.326;2022-08-05T14:14:09;2.15;;;0.43;;
17794;SDS011;9021;50.882;4.326;2022-08-05T14:16:35;8.63;;;0.50;;
17794;SDS011;9021;50.882;4.326;2022-08-05T14:19:01;1.92;;;0.35;;
17794;SDS011;9021;50.882;4.326;2022-08-05T14:21:26;3.72;;;0.40;;
17794;SDS011;9021;50.882;4.326;2022-08-05T14:23:52;2.97;;;0.40;;
17794;SDS011;9021;50.882;4.326;2022-08-05T14:26:17;3.40;;;0.50;;
17794;SDS011;9021;50.882;4.326;2022-08-05T14:28:43;5.00;;;0.98;;
17794;SDS011;9021;50.882;4.326;2022-08-05T14:31:09;3.92;;;0.32;;
17794;SDS011;9021;50.882;4.326;2022-08-05T14:33:35;0.85;;;0.32;;
17794;SDS011;9021;50.882;4.326;2022-08-05T14:36:00;5.32;;;0.40;;
17794;SDS011;9021;50.882;4.326;2022-08-05T14:38:27;1.88;;;0.40;;
17794;SDS011;9021;50.882;4.326;2022-08-05T14:40:52;1.55;;;0.30;;
17794;SDS011;9021;50.882;4.326;2022-08-05T14:43:19;2.05;;;0.57;;
17794;SDS011;9021;50.882;4.326;2022-08-05T14:45:45;4.57;;;0.40;;
17794;SDS011;9021;50.882;4.326;2022-08-05T14:50:36;1.77;;;0.47;;
17794;SDS011;9021;50.882;4.326;2022-08-05T14:53:01;3.33;;;0.50;;
17794;SDS011;9021;50.882;4.326;2022-08-05T14:57:53;3.45;;;0.50;;
17794;SDS011;9021;50.882;4.326;2022-08-05T15:02:47;2.67;;;0.60;;
17794;SDS011;9021;50.882;4.326;2022-08-05T15:07:38;4.13;;;0.40;;
17794;SDS011;9021;50.882;4.326;2022-08-05T15:12:30;3.67;;;0.40;;
17794;SDS011;9021;50.882;4.326;2022-08-05T15:17:25;2.40;;;0.80;;
17794;SDS011;9021;50.882;4.326;2022-08-05T15:22:16;2.78;;;0.60;;
17794;SDS011;9021;50.882;4.326;2022-08-05T15:27:08;2.25;;;0.40;;
17794;SDS011;9021;50.882;4.326;2022-08-05T15:29:35;1.77;;;0.60;;
17794;SDS011;9021;50.882;4.326;2022-08-05T15:34:26;4.53;;;0.40;;
17794;SDS011;9021;50.882;4.326;2022-08-05T15:39:17;2.75;;;0.40;;
17794;SDS011;9021;50.882;4.326;2022-08-05T15:41:43;1.15;;;0.40;;
17794;SDS011;9021;50.882;4.326;2022-08-05T15:44:09;4.40;;;0.50;;
17794;SDS011;9021;50.882;4.326;2022-08-05T15:49:00;2.67;;;0.47;;
17794;SDS011;9021;50.882;4.326;2022-08-05T15:51:26;1.50;;;0.40;;
17794;SDS011;9021;50.882;4.326;2022-08-05T15:53:52;2.88;;;0.40;;
17794;SDS011;9021;50.882;4.326;2022-08-05T15:58:44;2.55;;;0.40;;
17794;SDS011;9021;50.882;4.326;2022-08-05T16:03:38;1.52;;;0.35;;
17794;SDS011;9021;50.882;4.326;2022-08-05T16:06:04;2.33;;;0.50;;
17794;SDS011;9021;50.882;4.326;2022-08-05T16:10:55;0.65;;;0.30;;
17794;SDS011;9021;50.882;4.326;2022-08-05T16:15:47;6.28;;;0.70;;
17794;SDS011;9021;50.882;4.326;2022-08-05T16:20:38;8.07;;;0.73;;
17794;SDS011;9021;50.882;4.326;2022-08-05T16:25:29;5.40;;;0.50;;
17794;SDS011;9021;50.882;4.326;2022-08-05T16:30:21;3.45;;;0.63;;
17794;SDS011;9021;50.882;4.326;2022-08-05T16:35:12;1.42;;;0.40;;
17794;SDS011;9021;50.882;4.326;2022-08-05T16:40:04;3.90;;;0.70;;
17794;SDS011;9021;50.882;4.326;2022-08-05T16:42:33;5.70;;;0.60;;
17794;SDS011;9021;50.882;4.326;2022-08-05T16:47:24;4.63;;;0.68;;
17794;SDS011;9021;50.882;4.326;2022-08-05T16:52:15;4.28;;;0.73;;
17794;SDS011;9021;50.882;4.326;2022-08-05T16:57:06;3.72;;;0.43;;
17794;SDS011;9021;50.882;4.326;2022-08-05T17:02:00;5.43;;;0.80;;
17794;SDS011;9021;50.882;4.326;2022-08-05T17:04:32;5.28;;;0.50;;
17794;SDS011;9021;50.882;4.326;2022-08-05T17:06:58;7.13;;;0.80;;
17794;SDS011;9021;50.882;4.326;2022-08-05T17:09:36;1.95;;;0.65;;
17794;SDS011;9021;50.882;4.326;2022-08-05T17:12:02;2.45;;;0.60;;
17794;SDS011;9021;50.882;4.326;2022-08-05T17:17:05;5.53;;;0.77;;
17794;SDS011;9021;50.882;4.326;2022-08-05T17:19:31;6.25;;;0.60;;
17794;SDS011;9021;50.882;4.326;2022-08-05T17:24:22;5.32;;;0.70;;
17794;SDS011;9021;50.882;4.326;2022-08-05T17:29:14;2.25;;;0.57;;
17794;SDS011;9021;50.882;4.326;2022-08-05T17:31:41;3.22;;;0.63;;
17794;SDS011;9021;50.882;4.326;2022-08-05T17:34:07;4.60;;;0.80;;
17794;SDS011;9021;50.882;4.326;2022-08-05T17:36:53;3.22;;;0.50;;
17794;SDS011;9021;50.882;4.326;2022-08-05T17:39:19;4.68;;;0.90;;
17794;SDS011;9021;50.882;4.326;2022-08-05T17:41:44;3.42;;;1.10;;
17794;SDS011;9021;50.882;4.326;2022-08-05T17:44:10;3.50;;;0.90;;
17794;SDS011;9021;50.882;4.326;2022-08-05T17:49:01;4.13;;;0.70;;
17794;SDS011;9021;50.882;4.326;2022-08-05T17:51:27;6.60;;;1.40;;
17794;SDS011;9021;50.882;4.326;2022-08-05T17:53:53;7.30;;;1.23;;